createdAt,value
2022-09-27T00:00:09.265Z,11.50
2022-09-27T00:02:39.474Z,11.50
2022-09-27T00:05:08.704Z,11.50
2022-09-27T00:07:37.548Z,11.50
2022-09-27T00:10:06.794Z,11.50
2022-09-27T00:12:35.507Z,11.50
2022-09-27T00:15:04.810Z,11.50
2022-09-27T00:17:33.679Z,11.50
2022-09-27T00:20:05.529Z,11.50
2022-09-27T00:22:34.361Z,11.50
2022-09-27T00:25:06.118Z,11.50
2022-09-27T00:27:35.597Z,11.50
2022-09-27T00:30:04.223Z,11.50
2022-09-27T00:32:32.993Z,11.50
2022-09-27T00:35:03.051Z,11.50
2022-09-27T00:37:31.854Z,11.50
2022-09-27T00:40:00.605Z,11.50
2022-09-27T00:42:29.233Z,11.60
2022-09-27T00:45:04.376Z,11.60
2022-09-27T00:47:49.573Z,11.60
2022-09-27T00:50:29.961Z,11.60
2022-09-27T00:53:08.239Z,11.60
2022-09-27T00:55:40.398Z,11.60
2022-09-27T00:58:09.704Z,11.60
2022-09-27T01:00:44.416Z,11.60
2022-09-27T01:03:17.039Z,11.70
2022-09-27T01:05:47.438Z,11.70
2022-09-27T01:08:16.293Z,11.60
2022-09-27T01:10:55.106Z,11.70
2022-09-27T01:13:30.396Z,11.70
2022-09-27T01:16:10.814Z,11.70
2022-09-27T01:18:51.931Z,11.70
2022-09-27T01:21:43.123Z,11.70
2022-09-27T01:24:28.163Z,11.80
2022-09-27T01:27:33.818Z,11.80
2022-09-27T01:30:19.967Z,11.80
2022-09-27T01:32:57.407Z,11.80
2022-09-27T01:35:36.661Z,11.70
2022-09-27T01:38:15.466Z,11.70
2022-09-27T01:40:52.665Z,11.80
2022-09-27T01:43:26.016Z,11.80
2022-09-27T01:45:59.697Z,11.80
2022-09-27T01:48:34.280Z,11.80
2022-09-27T01:51:08.783Z,11.80
2022-09-27T01:53:39.770Z,11.80
2022-09-27T01:56:12.466Z,11.90
2022-09-27T01:58:45.544Z,11.90
2022-09-27T02:01:17.957Z,11.90
2022-09-27T02:03:51.227Z,11.90
2022-09-27T02:06:23.869Z,11.90
2022-09-27T02:08:57.120Z,11.90
2022-09-27T02:11:26.186Z,11.90
2022-09-27T02:13:59.743Z,11.90
2022-09-27T02:16:39.580Z,11.90
2022-09-27T02:19:21.693Z,11.90
2022-09-27T02:21:59.901Z,12.00
2022-09-27T02:24:37.027Z,11.90
2022-09-27T02:27:13.571Z,11.90
2022-09-27T02:29:47.358Z,11.90
2022-09-27T02:32:17.976Z,11.90
2022-09-27T02:34:47.452Z,11.90
2022-09-27T02:37:16.276Z,11.90
2022-09-27T02:39:45.002Z,11.90
2022-09-27T02:42:14.066Z,11.90
2022-09-27T02:44:43.311Z,12.00
2022-09-27T02:47:51.029Z,12.00
2022-09-27T02:50:46.282Z,12.00
2022-09-27T02:53:23.835Z,12.00
2022-09-27T02:56:02.586Z,12.00
2022-09-27T02:58:38.797Z,12.10
2022-09-27T03:01:12.126Z,12.10
2022-09-27T03:03:51.491Z,12.10
2022-09-27T03:06:22.875Z,12.10
2022-09-27T03:08:52.603Z,12.10
2022-09-27T03:11:21.337Z,12.10
2022-09-27T03:14:07.794Z,12.10
2022-09-27T03:16:37.002Z,12.10
2022-09-27T03:19:07.157Z,12.10
2022-09-27T03:21:36.089Z,12.10
2022-09-27T03:24:04.895Z,12.10
2022-09-27T03:26:33.561Z,12.10
2022-09-27T03:29:02.177Z,12.10
2022-09-27T03:31:31.028Z,12.10
2022-09-27T03:33:59.902Z,12.10
2022-09-27T03:36:29.904Z,12.10
2022-09-27T03:38:59.187Z,12.10
2022-09-27T03:41:27.909Z,12.10
2022-09-27T03:43:58.125Z,12.10
2022-09-27T03:46:26.925Z,12.10
2022-09-27T03:48:55.753Z,12.10
2022-09-27T03:51:24.542Z,12.20
2022-09-27T03:53:54.659Z,12.20
2022-09-27T03:56:23.292Z,12.20
2022-09-27T03:58:51.923Z,12.20
2022-09-27T04:01:20.866Z,12.20
2022-09-27T04:03:50.278Z,12.20
2022-09-27T04:06:20.034Z,12.20
2022-09-27T04:08:48.882Z,12.20
2022-09-27T04:11:18.941Z,12.20
2022-09-27T04:13:48.237Z,12.20
2022-09-27T04:16:17.517Z,12.20
2022-09-27T04:18:46.929Z,12.20
2022-09-27T04:21:15.842Z,12.20
2022-09-27T04:23:44.487Z,12.20
2022-09-27T04:26:13.934Z,12.20
2022-09-27T04:28:44.297Z,12.20
2022-09-27T04:31:12.984Z,12.20
2022-09-27T04:33:41.772Z,12.20
2022-09-27T04:36:27.799Z,12.30
2022-09-27T04:38:57.386Z,12.40
2022-09-27T04:41:29.966Z,12.30
2022-09-27T04:44:01.348Z,12.20
2022-09-27T04:46:31.907Z,12.20
2022-09-27T04:49:01.680Z,12.20
2022-09-27T04:51:30.838Z,12.20
2022-09-27T04:54:00.206Z,12.20
2022-09-27T04:56:28.976Z,12.30
2022-09-27T04:58:58.854Z,12.30
2022-09-27T05:01:30.622Z,12.30
2022-09-27T05:03:59.424Z,12.30
2022-09-27T05:06:28.049Z,12.30
2022-09-27T05:08:56.823Z,12.30
2022-09-27T05:11:25.477Z,12.30
2022-09-27T05:13:57.764Z,12.30
2022-09-27T05:16:29.705Z,12.30
2022-09-27T05:19:02.280Z,12.30
2022-09-27T05:21:32.026Z,12.30
2022-09-27T05:24:01.398Z,12.30
2022-09-27T05:26:30.206Z,12.30
2022-09-27T05:28:59.166Z,12.30
2022-09-27T05:31:28.202Z,12.30
2022-09-27T05:33:57.023Z,12.30
2022-09-27T05:36:27.179Z,12.30
2022-09-27T05:38:55.800Z,12.30
2022-09-27T05:41:24.625Z,12.30
2022-09-27T05:43:53.406Z,12.30
2022-09-27T05:46:22.031Z,12.30
2022-09-27T05:48:50.822Z,12.30
2022-09-27T05:51:21.287Z,12.40
2022-09-27T05:53:51.319Z,12.40
2022-09-27T05:56:20.022Z,12.40
2022-09-27T05:58:48.680Z,12.40
2022-09-27T06:01:17.393Z,12.40
2022-09-27T06:03:46.852Z,12.50
2022-09-27T06:06:15.754Z,12.50
2022-09-27T06:08:45.572Z,12.50
2022-09-27T06:11:16.391Z,12.60
2022-09-27T06:13:45.127Z,12.60
2022-09-27T06:16:14.265Z,12.60
2022-09-27T06:18:44.851Z,12.70
2022-09-27T06:21:14.062Z,12.70
2022-09-27T06:23:42.760Z,12.70
2022-09-27T06:26:11.886Z,12.70
2022-09-27T06:28:41.932Z,12.70
2022-09-27T06:31:12.034Z,12.70
2022-09-27T06:33:40.899Z,12.70
2022-09-27T06:36:10.180Z,12.70
2022-09-27T06:38:39.060Z,12.70
2022-09-27T06:41:10.326Z,12.70
2022-09-27T06:43:49.110Z,12.70
2022-09-27T06:46:20.802Z,12.80
2022-09-27T06:48:51.044Z,12.80
2022-09-27T06:51:20.929Z,12.80
2022-09-27T06:53:58.686Z,12.90
2022-09-27T06:56:29.932Z,12.70
2022-09-27T06:59:18.429Z,13.00
2022-09-27T07:01:48.633Z,13.10
2022-09-27T07:04:17.534Z,13.10
2022-09-27T07:06:46.337Z,13.20
2022-09-27T07:09:14.940Z,13.20
2022-09-27T07:11:46.289Z,13.30
2022-09-27T07:14:14.912Z,13.40
2022-09-27T07:16:43.876Z,13.50
2022-09-27T07:19:15.491Z,13.60
2022-09-27T07:21:44.230Z,13.70
2022-09-27T07:24:13.034Z,13.80
2022-09-27T07:26:41.747Z,14.00
2022-09-27T07:29:10.381Z,14.10
2022-09-27T07:31:39.094Z,14.20
2022-09-27T07:34:07.745Z,14.30
2022-09-27T07:36:37.830Z,14.30
2022-09-27T07:39:06.864Z,14.30
2022-09-27T07:41:35.629Z,14.40
2022-09-27T07:44:05.790Z,14.40
2022-09-27T07:46:34.499Z,14.40
2022-09-27T07:49:03.114Z,14.50
2022-09-27T07:51:31.858Z,14.50
2022-09-27T07:54:06.522Z,14.50
2022-09-27T07:56:37.326Z,14.60
2022-09-27T07:59:05.999Z,14.60
2022-09-27T08:01:35.021Z,14.70
2022-09-27T08:04:04.026Z,14.70
2022-09-27T08:06:32.644Z,14.70
2022-09-27T08:09:03.473Z,14.80
2022-09-27T08:11:32.184Z,14.90
2022-09-27T08:14:01.079Z,15.00
2022-09-27T08:16:29.692Z,15.10
2022-09-27T08:18:58.586Z,15.10
2022-09-27T08:21:27.205Z,15.10
2022-09-27T08:23:56.086Z,15.10
2022-09-27T08:26:26.307Z,15.20
2022-09-27T08:28:55.231Z,15.20
2022-09-27T08:31:25.666Z,15.20
2022-09-27T08:33:55.609Z,15.30
2022-09-27T08:36:24.425Z,15.30
2022-09-27T08:38:54.608Z,15.40
2022-09-27T08:41:36.547Z,15.40
2022-09-27T08:44:15.618Z,15.50
2022-09-27T08:46:55.685Z,15.60
2022-09-27T08:49:28.909Z,15.80
2022-09-27T08:51:59.716Z,15.80
2022-09-27T08:54:31.849Z,15.90
2022-09-27T08:57:06.485Z,16.00
2022-09-27T08:59:41.758Z,15.90
2022-09-27T09:02:19.544Z,15.80
2022-09-27T09:04:52.463Z,15.70
2022-09-27T09:07:38.861Z,15.60
2022-09-27T09:10:42.519Z,15.50
2022-09-27T09:13:23.303Z,15.90
2022-09-27T09:16:00.975Z,16.10
2022-09-27T09:18:42.172Z,16.30
2022-09-27T09:21:18.881Z,16.50
2022-09-27T09:24:06.579Z,16.70
2022-09-27T09:26:42.244Z,16.80
2022-09-27T09:29:29.803Z,17.00
2022-09-27T09:32:06.366Z,17.20
2022-09-27T09:34:40.144Z,17.40
2022-09-27T09:37:17.704Z,17.50
2022-09-27T09:39:51.748Z,17.60
2022-09-27T09:42:26.802Z,17.60
2022-09-27T09:45:04.100Z,17.60
2022-09-27T09:47:38.383Z,17.70
2022-09-27T09:50:18.253Z,17.70
2022-09-27T09:52:51.296Z,17.70
2022-09-27T09:55:22.747Z,17.80
2022-09-27T09:58:02.968Z,18.00
2022-09-27T10:00:33.332Z,18.00
2022-09-27T10:03:02.725Z,18.00
2022-09-27T10:05:31.672Z,17.90
2022-09-27T10:08:03.745Z,17.80
2022-09-27T10:10:32.892Z,17.70
2022-09-27T10:13:04.932Z,17.70
2022-09-27T10:15:35.998Z,17.80
2022-09-27T10:18:04.699Z,17.80
2022-09-27T10:20:38.393Z,17.90
2022-09-27T10:23:14.730Z,17.90
2022-09-27T10:25:53.311Z,17.90
2022-09-27T10:28:33.138Z,17.90
2022-09-27T10:31:06.599Z,17.90
2022-09-27T10:33:36.224Z,17.90
2022-09-27T10:36:05.754Z,17.90
2022-09-27T10:38:36.339Z,17.90
2022-09-27T10:41:23.410Z,17.90
2022-09-27T10:43:52.118Z,17.90
2022-09-27T10:46:29.055Z,17.90
2022-09-27T10:49:10.923Z,18.00
2022-09-27T10:51:39.895Z,18.10
2022-09-27T10:54:22.514Z,18.20
2022-09-27T10:56:59.009Z,18.20
2022-09-27T10:59:30.863Z,18.20
2022-09-27T11:02:01.534Z,18.10
2022-09-27T11:04:33.227Z,18.00
2022-09-27T11:07:18.609Z,18.00
2022-09-27T11:09:50.025Z,17.90
2022-09-27T11:12:21.419Z,17.80
2022-09-27T11:14:57.644Z,17.70
2022-09-27T11:17:41.062Z,17.60
2022-09-27T11:20:20.503Z,17.70
2022-09-27T11:23:10.123Z,17.70
2022-09-27T11:25:47.306Z,17.80
2022-09-27T11:28:32.146Z,17.90
2022-09-27T11:31:10.320Z,17.90
2022-09-27T11:34:09.447Z,18.00
2022-09-27T11:36:54.564Z,18.00
2022-09-27T11:39:31.646Z,18.00
2022-09-27T11:42:16.790Z,17.90
2022-09-27T11:45:31.872Z,17.70
2022-09-27T11:47:58.708Z,17.60
2022-09-27T11:50:51.269Z,17.60
2022-09-27T11:53:40.548Z,17.60
2022-09-27T11:56:20.255Z,17.70
2022-09-27T11:59:01.322Z,17.80
2022-09-27T12:01:39.576Z,17.80
2022-09-27T12:04:38.569Z,18.00
2022-09-27T12:07:16.962Z,18.00
2022-09-27T12:09:49.908Z,18.20
2022-09-27T12:12:23.492Z,18.30
2022-09-27T12:15:11.189Z,18.30
2022-09-27T12:17:44.553Z,18.20
2022-09-27T12:20:20.745Z,18.40
2022-09-27T12:22:59.152Z,18.30
2022-09-27T12:25:32.676Z,18.20
2022-09-27T12:28:08.704Z,18.20
2022-09-27T12:30:41.670Z,18.20
2022-09-27T12:33:16.576Z,18.20
2022-09-27T12:35:51.787Z,18.20
2022-09-27T12:38:43.048Z,18.20
2022-09-27T12:41:15.567Z,18.20
2022-09-27T12:43:49.783Z,18.20
2022-09-27T12:46:25.956Z,18.10
2022-09-27T12:49:05.610Z,18.10
2022-09-27T12:51:38.666Z,18.10
2022-09-27T12:54:39.670Z,18.00
2022-09-27T12:57:20.371Z,17.90
2022-09-27T13:00:04.661Z,17.90
2022-09-27T13:03:16.590Z,17.80
2022-09-27T13:06:12.363Z,17.80
2022-09-27T13:08:57.926Z,17.80
2022-09-27T13:11:36.801Z,17.90
2022-09-27T13:14:07.747Z,17.90
2022-09-27T13:16:44.991Z,17.90
2022-09-27T13:19:40.490Z,18.00
2022-09-27T13:22:11.531Z,18.00
2022-09-27T13:24:48.526Z,18.00
2022-09-27T13:27:45.431Z,17.90
2022-09-27T13:30:50.139Z,17.80
2022-09-27T13:33:34.784Z,17.60
2022-09-27T13:36:31.819Z,17.50
2022-09-27T13:39:20.237Z,17.30
2022-09-27T13:42:12.581Z,17.20
2022-09-27T13:45:08.842Z,17.10
2022-09-27T13:47:41.547Z,17.00
2022-09-27T13:50:21.578Z,17.00
2022-09-27T13:53:00.835Z,17.00
2022-09-27T13:55:49.399Z,17.00
2022-09-27T13:58:34.406Z,17.10
2022-09-27T14:01:11.061Z,17.10
2022-09-27T14:03:43.955Z,17.20
2022-09-27T14:06:16.621Z,17.20
2022-09-27T14:08:49.561Z,17.10
2022-09-27T14:11:23.254Z,17.20
2022-09-27T14:13:53.653Z,17.00
2022-09-27T14:16:23.981Z,17.00
2022-09-27T14:18:58.515Z,16.90
2022-09-27T14:21:33.816Z,16.80
2022-09-27T14:24:28.953Z,16.80
2022-09-27T14:27:12.962Z,16.60
2022-09-27T14:29:45.089Z,16.60
2022-09-27T14:32:16.761Z,16.60
2022-09-27T14:34:48.379Z,16.60
2022-09-27T14:40:43.804Z,16.60
2022-09-27T14:43:18.383Z,16.50
2022-09-27T14:45:48.963Z,16.50
2022-09-27T14:48:24.954Z,16.50
2022-09-27T14:51:05.027Z,16.30
2022-09-27T14:53:37.562Z,16.30
2022-09-27T14:56:07.380Z,16.20
2022-09-27T14:58:47.217Z,16.10
2022-09-27T15:01:18.192Z,16.10
2022-09-27T15:03:50.287Z,16.00
2022-09-27T15:06:20.410Z,16.00
2022-09-27T15:08:50.501Z,16.00
2022-09-27T15:11:21.886Z,16.00
2022-09-27T15:13:55.237Z,16.00
2022-09-27T15:16:25.589Z,15.80
2022-09-27T15:19:04.354Z,15.80
2022-09-27T15:21:34.577Z,15.70
2022-09-27T15:24:04.008Z,15.70
2022-09-27T15:26:39.436Z,15.60
2022-09-27T15:29:08.420Z,15.60
2022-09-27T15:31:38.018Z,15.50
2022-09-27T15:34:08.263Z,15.50
2022-09-27T15:36:58.467Z,15.40
2022-09-27T15:39:32.949Z,15.40
2022-09-27T15:42:10.228Z,15.40
2022-09-27T15:44:48.093Z,15.40
2022-09-27T15:47:50.075Z,15.40
2022-09-27T15:50:37.229Z,15.30
2022-09-27T15:53:07.226Z,15.40
2022-09-27T15:55:40.698Z,15.30
2022-09-27T15:58:15.697Z,15.30
2022-09-27T16:00:54.029Z,15.30
2022-09-27T16:03:22.762Z,15.20
2022-09-27T16:05:53.093Z,15.20
2022-09-27T16:08:21.785Z,15.20
2022-09-27T16:10:52.638Z,15.10
2022-09-27T16:13:21.320Z,15.00
2022-09-27T16:15:50.856Z,15.00
2022-09-27T16:18:19.956Z,14.90
2022-09-27T16:20:48.622Z,14.90
2022-09-27T16:23:21.240Z,14.80
2022-09-27T16:25:49.957Z,14.70
2022-09-27T16:28:18.717Z,14.70
2022-09-27T16:30:48.270Z,14.60
2022-09-27T16:33:17.080Z,14.50
2022-09-27T16:35:45.851Z,14.40
2022-09-27T16:38:14.620Z,14.30
2022-09-27T16:40:45.099Z,14.10
2022-09-27T16:43:14.107Z,13.70
2022-09-27T16:45:42.903Z,13.90
2022-09-27T16:48:11.691Z,13.80
2022-09-27T16:50:57.671Z,13.70
2022-09-27T16:53:26.448Z,13.60
2022-09-27T16:56:00.589Z,13.60
2022-09-27T16:58:30.960Z,13.50
2022-09-27T17:01:00.312Z,13.50
2022-09-27T17:03:29.424Z,13.40
2022-09-27T17:06:07.355Z,13.30
2022-09-27T17:08:36.345Z,13.20
2022-09-27T17:11:06.710Z,13.10
2022-09-27T17:13:35.759Z,13.00
2022-09-27T17:16:06.698Z,13.00
2022-09-27T17:18:35.596Z,12.90
2022-09-27T17:21:04.995Z,12.80
2022-09-27T17:23:34.845Z,12.80
2022-09-27T17:26:07.573Z,12.70
2022-09-27T17:28:37.728Z,12.60
2022-09-27T17:31:10.719Z,12.50
2022-09-27T17:33:43.775Z,12.30
2022-09-27T17:36:15.329Z,12.20
2022-09-27T17:38:44.006Z,12.10
2022-09-27T17:41:16.808Z,11.90
2022-09-27T17:43:50.287Z,11.90
2022-09-27T17:46:20.556Z,11.80
2022-09-27T17:49:07.420Z,11.70
2022-09-27T17:51:38.015Z,11.60
2022-09-27T17:54:08.377Z,11.50
2022-09-27T17:56:40.327Z,11.40
2022-09-27T17:59:10.499Z,11.30
2022-09-27T18:01:40.531Z,11.30
2022-09-27T18:04:10.995Z,11.20
2022-09-27T18:06:41.563Z,11.20
2022-09-27T18:09:34.175Z,11.10
2022-09-27T18:12:04.881Z,11.10
2022-09-27T18:14:33.735Z,11.00
2022-09-27T18:17:02.481Z,10.90
2022-09-27T18:19:31.231Z,11.00
2022-09-27T18:22:01.004Z,10.90
2022-09-27T18:24:29.711Z,10.90
2022-09-27T18:27:02.018Z,10.80
2022-09-27T18:29:32.272Z,10.70
2022-09-27T18:32:02.313Z,10.60
2022-09-27T18:34:30.853Z,10.50
2022-09-27T18:36:59.463Z,10.50
2022-09-27T18:39:28.080Z,10.40
2022-09-27T18:41:56.795Z,10.40
2022-09-27T18:44:25.649Z,10.40
2022-09-27T18:46:56.154Z,10.30
2022-09-27T18:49:27.029Z,10.40
2022-09-27T18:51:58.302Z,10.40
2022-09-27T18:54:27.307Z,10.50
2022-09-27T18:56:55.969Z,10.60
2022-09-27T18:59:24.570Z,10.70
2022-09-27T19:01:54.997Z,10.80
2022-09-27T19:04:25.075Z,10.90
2022-09-27T19:06:54.427Z,10.90
2022-09-27T19:09:23.384Z,10.90
2022-09-27T19:11:52.005Z,10.90
2022-09-27T19:14:22.667Z,10.90
2022-09-27T19:16:52.103Z,11.00
2022-09-27T19:19:22.973Z,11.10
2022-09-27T19:21:51.721Z,11.10
2022-09-27T19:24:21.170Z,11.20
2022-09-27T19:26:53.806Z,11.30
2022-09-27T19:29:22.433Z,11.50
2022-09-27T19:31:51.223Z,11.50
2022-09-27T19:34:21.305Z,11.70
2022-09-27T19:36:50.078Z,11.80
2022-09-27T19:39:18.953Z,11.80
2022-09-27T19:41:47.574Z,11.90
2022-09-27T19:44:16.334Z,11.90
2022-09-27T19:46:46.033Z,11.90
2022-09-27T19:49:14.765Z,11.90
2022-09-27T19:51:45.093Z,11.90
2022-09-27T19:54:13.944Z,11.90
2022-09-27T19:56:42.612Z,11.90
2022-09-27T19:59:12.933Z,11.90
2022-09-27T20:01:42.193Z,11.90
2022-09-27T20:04:13.183Z,11.90
2022-09-27T20:06:49.419Z,11.80
2022-09-27T20:09:19.854Z,11.80
2022-09-27T20:11:50.053Z,11.80
2022-09-27T20:14:19.216Z,11.70
2022-09-27T20:16:48.803Z,11.70
2022-09-27T20:19:17.738Z,11.70
2022-09-27T20:21:46.651Z,11.70
2022-09-27T20:24:15.500Z,11.60
2022-09-27T20:26:46.169Z,11.70
2022-09-27T20:29:16.887Z,11.70
2022-09-27T20:32:09.123Z,11.70
2022-09-27T20:34:36.187Z,11.80
2022-09-27T20:37:07.734Z,11.80
2022-09-27T20:39:36.680Z,11.80
2022-09-27T20:42:07.268Z,11.90
2022-09-27T20:44:36.023Z,11.90
2022-09-27T20:47:04.785Z,12.00
2022-09-27T20:49:33.909Z,12.00
2022-09-27T20:52:02.894Z,12.10
2022-09-27T20:54:35.039Z,12.20
2022-09-27T20:57:03.813Z,12.20
2022-09-27T20:59:34.009Z,12.30
2022-09-27T21:02:02.653Z,12.30
2022-09-27T21:04:32.173Z,12.40
2022-09-27T21:07:02.171Z,12.50
2022-09-27T21:09:30.913Z,12.50
2022-09-27T21:11:59.665Z,12.50
2022-09-27T21:14:32.726Z,12.50
2022-09-27T21:17:05.917Z,12.40
2022-09-27T21:19:35.180Z,12.40
2022-09-27T21:22:03.987Z,12.40
2022-09-27T21:24:32.832Z,12.50
2022-09-27T21:27:05.972Z,12.40
2022-09-27T21:29:36.123Z,12.40
2022-09-27T21:32:04.907Z,12.40
2022-09-27T21:34:33.574Z,12.40
2022-09-27T21:37:03.313Z,12.40
2022-09-27T21:39:31.984Z,12.40
2022-09-27T21:42:02.866Z,12.40
2022-09-27T21:44:32.080Z,12.40
2022-09-27T21:47:02.495Z,12.40
2022-09-27T21:49:33.070Z,12.40
2022-09-27T21:52:02.136Z,12.40
2022-09-27T21:54:31.676Z,12.40
2022-09-27T21:57:03.744Z,12.30
2022-09-27T21:59:32.436Z,12.30
2022-09-27T22:02:02.676Z,12.30
2022-09-27T22:04:31.397Z,12.40
2022-09-27T22:07:00.249Z,12.40
2022-09-27T22:09:29.121Z,12.40
2022-09-27T22:11:57.762Z,12.30
2022-09-27T22:14:26.848Z,12.30
2022-09-27T22:16:55.567Z,12.30
2022-09-27T22:19:25.890Z,12.30
2022-09-27T22:21:57.135Z,12.30
2022-09-27T22:24:25.882Z,12.30
2022-09-27T22:26:54.594Z,12.30
2022-09-27T22:29:23.707Z,12.30
2022-09-27T22:31:52.462Z,12.30
2022-09-27T22:34:29.331Z,12.30
2022-09-27T22:37:01.045Z,12.30
2022-09-27T22:39:29.818Z,12.30
2022-09-27T22:41:58.821Z,12.30
2022-09-27T22:44:27.506Z,12.30
2022-09-27T22:46:56.243Z,12.30
2022-09-27T22:49:24.938Z,12.30
2022-09-27T22:51:55.388Z,12.30
2022-09-27T22:54:30.440Z,12.30
2022-09-27T22:56:59.135Z,12.30
2022-09-27T22:59:28.341Z,12.30
2022-09-27T23:01:57.206Z,12.30
2022-09-27T23:04:31.203Z,12.30
2022-09-27T23:07:02.808Z,12.30
2022-09-27T23:09:32.839Z,12.30
2022-09-27T23:12:01.604Z,12.30
2022-09-27T23:14:30.297Z,12.30
2022-09-27T23:16:58.967Z,12.40
2022-09-27T23:19:27.719Z,12.40
2022-09-27T23:21:56.280Z,12.40
2022-09-27T23:24:24.908Z,12.40
2022-09-27T23:27:09.066Z,12.40
2022-09-27T23:29:39.504Z,12.40
2022-09-27T23:32:09.650Z,12.40
2022-09-27T23:34:38.951Z,12.40
2022-09-27T23:37:07.799Z,12.40
2022-09-27T23:39:36.521Z,12.40
2022-09-27T23:42:06.915Z,12.40
2022-09-27T23:44:35.578Z,12.40
2022-09-27T23:47:04.437Z,12.40
2022-09-27T23:49:33.358Z,12.30
2022-09-27T23:52:02.323Z,12.30
2022-09-27T23:54:31.054Z,12.30
2022-09-27T23:57:00.226Z,12.30
2022-09-27T23:59:30.525Z,12.30
